Time;durP1;ratioP1;P1;durP2;ratioP2;P2;SDS_P1;SDS_P2;PMS_P1;PMS_P2;Temp;Humidity;BMP_temperature;BMP_pressure;BME280_temperature;BME280_humidity;BME280_pressure;Samples;Min_cycle;Max_cycle;Signal;HPM_P1;HPM_P2
2022/07/23 00:01:19;;;;;;;4.68;3.25;;;14.60;99.90;;;;;;5069213;28;20044;-65
2022/07/23 00:03:45;;;;;;;6.43;3.08;;;14.60;99.90;;;;;;5069781;28;20055;-65
2022/07/23 00:06:11;;;;;;;4.95;2.90;;;14.60;99.90;;;;;;5084324;28;20036;-65
2022/07/23 00:08:37;;;;;;;4.10;2.85;;;14.60;99.90;;;;;;5070129;28;20460;-65
2022/07/23 00:11:02;;;;;;;5.10;2.80;;;14.70;99.90;;;;;;5067803;28;20090;-65
2022/07/23 00:13:28;;;;;;;5.05;2.90;;;14.70;99.90;;;;;;5068893;28;20041;-65
2022/07/23 00:15:55;;;;;;;7.75;3.55;;;14.70;99.90;;;;;;5052334;28;20051;-65
2022/07/23 00:18:20;;;;;;;4.95;3.00;;;14.60;99.90;;;;;;5069999;28;20075;-65
2022/07/23 00:20:46;;;;;;;6.65;3.20;;;14.50;99.90;;;;;;5087371;28;20088;-65
2022/07/23 00:23:12;;;;;;;7.35;3.72;;;14.30;99.90;;;;;;5069663;28;20048;-65
2022/07/23 00:25:38;;;;;;;4.68;3.13;;;14.30;99.90;;;;;;5069292;28;20055;-65
2022/07/23 00:28:04;;;;;;;3.15;2.85;;;14.40;99.90;;;;;;5067662;28;20074;-65
2022/07/23 00:30:31;;;;;;;7.82;3.05;;;14.30;99.90;;;;;;5069099;28;20052;-65
2022/07/23 00:32:59;;;;;;;6.32;2.78;;;14.20;99.90;;;;;;5069767;28;20052;-65
2022/07/23 00:35:27;;;;;;;5.38;2.97;;;14.20;99.90;;;;;;5068428;28;20550;-65
2022/07/23 00:37:53;;;;;;;5.38;2.95;;;14.20;99.90;;;;;;5071537;28;20056;-65
2022/07/23 00:40:19;;;;;;;6.78;3.25;;;14.20;99.90;;;;;;5071127;28;20044;-65
2022/07/23 00:42:45;;;;;;;4.30;2.90;;;14.20;99.90;;;;;;5069027;28;20168;-65
2022/07/23 00:45:11;;;;;;;4.38;3.10;;;14.20;99.90;;;;;;5073259;28;20047;-65
2022/07/23 00:47:37;;;;;;;4.18;3.30;;;14.00;99.90;;;;;;5067629;28;20052;-65
2022/07/23 00:50:04;;;;;;;4.15;3.55;;;13.90;99.90;;;;;;5071146;28;20049;-65
2022/07/23 00:52:32;;;;;;;5.72;3.38;;;13.90;99.90;;;;;;5065671;28;20048;-65
2022/07/23 00:54:58;;;;;;;5.10;3.60;;;13.90;99.90;;;;;;5068378;28;20060;-65
2022/07/23 00:57:24;;;;;;;5.47;3.22;;;13.80;99.90;;;;;;5083136;28;20068;-65
2022/07/23 00:59:49;;;;;;;5.40;3.45;;;13.80;99.90;;;;;;5069273;28;20048;-65
2022/07/23 01:02:15;;;;;;;4.25;3.47;;;13.70;99.90;;;;;;5075219;28;20067;-65
2022/07/23 01:04:41;;;;;;;8.30;4.35;;;13.70;99.90;;;;;;5076970;28;20054;-65
2022/07/23 01:07:07;;;;;;;6.10;4.60;;;13.70;99.90;;;;;;5086727;28;20054;-65
2022/07/23 01:09:33;;;;;;;5.70;4.18;;;13.60;99.90;;;;;;5075741;28;20036;-65
2022/07/23 01:11:59;;;;;;;6.97;3.88;;;13.60;99.90;;;;;;5078720;28;20068;-65
2022/07/23 01:14:26;;;;;;;7.22;4.22;;;13.60;99.90;;;;;;5085833;28;20056;-65
2022/07/23 01:16:52;;;;;;;6.95;4.38;;;13.60;99.90;;;;;;5085805;28;20127;-65
2022/07/23 01:19:18;;;;;;;8.90;4.10;;;13.50;99.90;;;;;;5067881;28;20052;-65
2022/07/23 01:21:50;;;;;;;4.78;3.65;;;13.40;99.90;;;;;;5074222;28;20488;-65
2022/07/23 01:24:16;;;;;;;10.43;4.28;;;13.20;99.90;;;;;;5086126;28;20071;-65
2022/07/23 01:26:45;;;;;;;5.95;3.92;;;13.20;99.90;;;;;;5085323;28;20044;-65
2022/07/23 01:29:11;;;;;;;9.02;5.22;;;13.10;99.90;;;;;;5074752;28;20105;-65
2022/07/23 01:31:37;;;;;;;9.00;3.67;;;13.00;99.90;;;;;;5074895;28;20351;-65
2022/07/23 01:34:04;;;;;;;7.38;4.68;;;13.00;99.90;;;;;;5074149;28;20076;-65
2022/07/23 01:36:30;;;;;;;7.32;3.90;;;13.00;99.90;;;;;;5068638;28;20082;-65
2022/07/23 01:38:55;;;;;;;8.20;4.75;;;12.90;99.90;;;;;;5048773;28;20057;-65
2022/07/23 01:41:21;;;;;;;5.53;4.65;;;12.90;99.90;;;;;;5048723;28;20044;-65
2022/07/23 01:43:47;;;;;;;6.40;4.63;;;13.00;99.90;;;;;;5066487;28;20512;-65
2022/07/23 01:46:13;;;;;;;4.25;3.85;;;13.10;99.90;;;;;;5047004;28;20048;-65
2022/07/23 01:48:39;;;;;;;7.45;4.30;;;12.90;99.90;;;;;;5047809;28;20053;-65
2022/07/23 01:51:05;;;;;;;8.60;4.30;;;12.90;99.90;;;;;;5046633;28;20064;-65
2022/07/23 01:53:31;;;;;;;4.43;3.67;;;12.80;99.90;;;;;;5030487;28;20067;-65
2022/07/23 01:55:58;;;;;;;5.43;3.90;;;12.70;99.90;;;;;;5046797;28;20040;-65
2022/07/23 01:58:24;;;;;;;5.63;3.85;;;12.70;99.90;;;;;;5047150;28;20056;-65
2022/07/23 02:00:50;;;;;;;6.45;4.18;;;12.70;99.90;;;;;;5046776;28;20093;-65
2022/07/23 02:03:16;;;;;;;5.13;3.63;;;12.60;99.90;;;;;;5048218;28;20048;-65
2022/07/23 02:05:41;;;;;;;4.80;4.28;;;12.50;99.90;;;;;;5048380;28;20119;-65
2022/07/23 02:08:07;;;;;;;5.15;3.70;;;12.60;99.90;;;;;;5048451;28;20045;-66
2022/07/23 02:10:33;;;;;;;5.88;3.58;;;12.60;99.90;;;;;;5047123;28;20037;-66
2022/07/23 02:12:58;;;;;;;4.53;3.53;;;12.60;99.90;;;;;;5046970;28;20477;-66
2022/07/23 02:15:24;;;;;;;4.32;3.25;;;12.50;99.90;;;;;;5047539;28;20051;-65
2022/07/23 02:17:50;;;;;;;6.15;3.55;;;12.50;99.90;;;;;;5047886;28;20041;-65
2022/07/23 02:20:16;;;;;;;5.00;3.13;;;12.50;99.90;;;;;;5066066;28;20104;-65
2022/07/23 02:22:41;;;;;;;3.85;2.60;;;12.50;99.90;;;;;;5047577;28;20037;-66
2022/07/23 02:25:08;;;;;;;3.00;2.63;;;12.50;99.90;;;;;;5065932;28;20045;-66
2022/07/23 02:27:35;;;;;;;12.75;3.00;;;12.50;99.90;;;;;;5064427;28;20635;-66
2022/07/23 02:30:00;;;;;;;5.22;3.53;;;12.40;99.90;;;;;;5046438;28;20045;-66
2022/07/23 02:32:26;;;;;;;7.35;4.18;;;12.30;99.90;;;;;;5046236;28;20047;-66
2022/07/23 02:34:52;;;;;;;7.80;4.15;;;12.30;99.90;;;;;;5064246;28;20088;-66
2022/07/23 02:37:18;;;;;;;6.90;4.50;;;12.40;99.90;;;;;;5047198;28;20053;-66
2022/07/23 02:39:44;;;;;;;5.90;4.35;;;12.30;99.90;;;;;;5063921;28;20056;-66
2022/07/23 02:42:09;;;;;;;4.95;3.65;;;12.30;99.90;;;;;;5047384;28;20076;-66
2022/07/23 02:44:35;;;;;;;5.93;3.58;;;12.10;99.90;;;;;;5046487;28;20112;-65
2022/07/23 02:47:01;;;;;;;8.43;5.10;;;12.10;99.90;;;;;;5045985;28;20041;-65
2022/07/23 02:49:27;;;;;;;5.55;4.43;;;12.20;99.90;;;;;;5046230;28;20040;-66
2022/07/23 02:51:53;;;;;;;6.25;4.25;;;12.30;99.90;;;;;;5046422;28;20045;-66
2022/07/23 02:54:19;;;;;;;7.15;4.97;;;12.30;99.90;;;;;;5046212;28;20074;-66
2022/07/23 02:56:45;;;;;;;8.73;5.10;;;12.30;99.90;;;;;;5045841;28;20090;-66
2022/07/23 02:59:11;;;;;;;9.23;5.60;;;12.30;99.90;;;;;;5046052;28;20080;-66
2022/07/23 03:01:37;;;;;;;6.75;4.35;;;12.40;99.90;;;;;;5065208;28;20469;-66
2022/07/23 03:04:03;;;;;;;5.65;4.47;;;12.30;99.90;;;;;;5046631;28;20041;-66
2022/07/23 03:06:29;;;;;;;6.88;5.10;;;12.30;99.90;;;;;;5045667;28;20049;-65
2022/07/23 03:08:54;;;;;;;7.47;5.18;;;12.30;99.90;;;;;;5046066;28;20057;-66
2022/07/23 03:11:20;;;;;;;5.35;4.55;;;12.30;99.90;;;;;;5029119;28;20052;-66
2022/07/23 03:13:46;;;;;;;8.20;5.28;;;12.20;99.90;;;;;;5063727;28;20041;-66
2022/07/23 03:16:12;;;;;;;8.93;5.35;;;12.00;99.90;;;;;;5063744;28;20041;-66
2022/07/23 03:18:37;;;;;;;11.68;5.60;;;12.00;99.90;;;;;;5063856;28;20056;-66
2022/07/23 03:21:03;;;;;;;7.03;4.82;;;12.00;99.90;;;;;;5047295;28;20067;-66
2022/07/23 03:23:29;;;;;;;7.57;3.90;;;12.00;99.90;;;;;;5046706;28;20060;-66
2022/07/23 03:25:55;;;;;;;6.07;4.07;;;11.80;99.90;;;;;;5045791;28;20044;-65
2022/07/23 03:28:20;;;;;;;8.07;4.22;;;11.60;99.90;;;;;;5044590;28;20048;-66
2022/07/23 03:30:47;;;;;;;8.00;4.97;;;11.50;99.90;;;;;;5047030;28;20045;-66
2022/07/23 03:33:17;;;;;;;7.78;4.07;;;11.50;99.90;;;;;;5046869;28;20056;-66
2022/07/23 03:35:44;;;;;;;6.85;4.82;;;11.50;99.90;;;;;;5046675;28;20049;-66
2022/07/23 03:38:10;;;;;;;10.20;5.25;;;11.60;99.90;;;;;;5044695;28;20057;-66
2022/07/23 03:40:36;;;;;;;7.93;4.45;;;11.60;99.90;;;;;;5045446;28;20053;-66
2022/07/23 03:43:02;;;;;;;5.30;4.13;;;11.70;99.90;;;;;;5045533;28;20097;-66
2022/07/23 03:45:28;;;;;;;7.38;4.82;;;11.70;99.90;;;;;;5063129;28;20067;-65
2022/07/23 03:47:54;;;;;;;10.63;5.25;;;11.70;99.90;;;;;;5063465;28;20041;-66
2022/07/23 03:50:20;;;;;;;7.95;5.10;;;11.80;99.90;;;;;;5045549;28;20122;-66
2022/07/23 03:52:46;;;;;;;8.35;5.28;;;11.70;99.90;;;;;;5045479;28;20052;-66
2022/07/23 03:55:11;;;;;;;10.00;4.60;;;11.80;99.90;;;;;;5063431;28;20045;-66
2022/07/23 03:57:37;;;;;;;5.47;4.10;;;11.70;99.90;;;;;;5045967;28;20529;-65
2022/07/23 04:00:06;;;;;;;10.85;4.65;;;11.70;99.90;;;;;;5046085;28;20049;-66
2022/07/23 04:02:32;;;;;;;6.50;5.07;;;11.60;99.90;;;;;;5061246;28;20084;-65
2022/07/23 04:04:59;;;;;;;10.70;4.57;;;11.60;99.90;;;;;;5046172;28;20041;-66
2022/07/23 04:07:25;;;;;;;6.32;4.30;;;11.50;99.90;;;;;;5063983;28;20080;-66
2022/07/23 04:09:50;;;;;;;5.95;4.13;;;11.40;99.90;;;;;;5057646;28;20045;-66
2022/07/23 04:12:16;;;;;;;8.10;3.90;;;11.50;99.90;;;;;;5045336;28;20429;-65
2022/07/23 04:14:42;;;;;;;7.03;4.50;;;11.40;99.90;;;;;;5045682;28;20033;-66
2022/07/23 04:17:08;;;;;;;9.40;5.65;;;11.50;99.90;;;;;;5030001;28;20056;-66
2022/07/23 04:19:35;;;;;;;8.18;5.40;;;11.70;99.90;;;;;;5063421;28;20049;-65
2022/07/23 04:22:01;;;;;;;10.07;6.28;;;11.60;99.90;;;;;;5042116;28;20041;-66
2022/07/23 04:24:26;;;;;;;10.07;6.47;;;11.70;99.90;;;;;;5048369;28;20051;-66
2022/07/23 04:26:53;;;;;;;8.70;6.20;;;11.70;99.90;;;;;;5048993;28;20045;-66
2022/07/23 04:29:18;;;;;;;9.10;6.40;;;11.70;99.90;;;;;;5067014;28;20037;-66
2022/07/23 04:31:44;;;;;;;10.95;6.53;;;11.80;99.90;;;;;;5049389;28;20044;-66
2022/07/23 04:34:09;;;;;;;9.20;6.75;;;11.80;99.90;;;;;;5049040;28;20132;-66
2022/07/23 04:36:35;;;;;;;12.82;7.32;;;11.80;99.90;;;;;;5067003;28;20033;-66
2022/07/23 04:39:01;;;;;;;13.05;7.25;;;11.90;99.90;;;;;;5068086;28;20060;-66
2022/07/23 04:41:27;;;;;;;12.98;7.18;;;12.00;99.90;;;;;;5068811;28;20597;-66
2022/07/23 04:43:52;;;;;;;12.75;7.10;;;12.10;99.90;;;;;;5068769;28;20036;-66
2022/07/23 04:46:18;;;;;;;12.02;6.30;;;12.10;99.90;;;;;;5068795;28;20100;-66
2022/07/23 04:48:44;;;;;;;9.30;6.30;;;12.20;99.90;;;;;;5086406;28;20041;-66
2022/07/23 04:51:09;;;;;;;13.15;6.57;;;12.20;99.90;;;;;;5068137;28;20108;-66
2022/07/23 04:53:38;;;;;;;7.90;5.68;;;12.30;99.90;;;;;;5067954;28;20040;-66
2022/07/23 04:56:04;;;;;;;10.70;6.00;;;12.30;99.90;;;;;;5068977;28;20041;-66
2022/07/23 04:58:31;;;;;;;10.20;6.15;;;12.40;99.90;;;;;;5085830;28;20095;-66
2022/07/23 05:00:57;;;;;;;9.02;5.65;;;12.30;99.90;;;;;;5086297;28;20048;-66
2022/07/23 05:03:23;;;;;;;9.48;6.10;;;12.40;99.90;;;;;;5086228;28;20082;-66
2022/07/23 05:05:49;;;;;;;13.48;6.82;;;12.50;99.90;;;;;;5068180;28;20059;-66
2022/07/23 05:08:15;;;;;;;11.10;5.97;;;12.50;99.90;;;;;;5067494;28;20052;-66
2022/07/23 05:10:41;;;;;;;10.68;6.18;;;12.60;99.90;;;;;;5064767;28;20040;-66
2022/07/23 05:13:06;;;;;;;10.70;5.80;;;12.70;99.90;;;;;;5069432;28;20071;-66
2022/07/23 05:15:32;;;;;;;9.52;6.10;;;12.70;99.90;;;;;;5069060;28;20045;-66
2022/07/23 05:17:58;;;;;;;11.18;6.10;;;12.80;99.90;;;;;;5087255;28;20036;-66
2022/07/23 05:20:24;;;;;;;13.07;6.65;;;12.80;99.90;;;;;;5086952;28;20569;-66
2022/07/23 05:22:49;;;;;;;12.60;6.97;;;12.90;99.90;;;;;;5051630;28;20052;-66
2022/07/23 05:25:15;;;;;;;13.27;6.90;;;13.00;99.90;;;;;;5063108;28;20087;-66
2022/07/23 05:27:41;;;;;;;10.32;5.78;;;13.10;99.90;;;;;;5051309;28;20094;-66
2022/07/23 05:30:07;;;;;;;13.63;6.15;;;13.10;99.90;;;;;;5067436;28;20109;-66
2022/07/23 05:32:33;;;;;;;12.68;6.43;;;13.20;99.90;;;;;;5051775;28;20070;-66
2022/07/23 05:34:59;;;;;;;8.00;5.85;;;13.30;99.90;;;;;;5067101;28;20072;-66
2022/07/23 05:37:24;;;;;;;12.10;6.28;;;13.40;99.90;;;;;;5067559;28;20112;-67
2022/07/23 05:39:50;;;;;;;9.57;6.50;;;13.50;99.90;;;;;;5067028;28;22896;-66
2022/07/23 05:42:16;;;;;;;10.13;6.28;;;13.50;99.90;;;;;;5067188;28;20046;-66
2022/07/23 05:44:41;;;;;;;11.52;6.53;;;13.60;99.90;;;;;;5067611;28;20048;-66
2022/07/23 05:47:07;;;;;;;10.07;6.60;;;13.50;99.90;;;;;;5068175;28;20045;-66
2022/07/23 05:49:33;;;;;;;9.82;5.53;;;13.70;99.90;;;;;;5067027;28;20040;-66
2022/07/23 05:52:02;;;;;;;10.10;5.05;;;13.80;99.90;;;;;;5067146;28;20060;-66
2022/07/23 05:54:28;;;;;;;7.93;5.13;;;13.90;99.90;;;;;;5062386;28;20104;-66
2022/07/23 05:56:54;;;;;;;7.70;5.32;;;13.90;99.90;;;;;;5067512;28;20068;-66
2022/07/23 05:59:19;;;;;;;11.20;5.22;;;14.00;99.90;;;;;;5084546;28;20504;-66
2022/07/23 06:01:45;;;;;;;8.82;4.60;;;14.10;99.90;;;;;;5050987;28;20406;-66
2022/07/23 06:04:11;;;;;;;7.05;5.40;;;14.20;99.90;;;;;;5086350;28;20040;-66
2022/07/23 06:06:36;;;;;;;7.75;4.70;;;14.20;99.90;;;;;;5067773;28;20045;-66
2022/07/23 06:09:02;;;;;;;8.30;4.88;;;14.20;99.90;;;;;;5066521;28;20086;-66
2022/07/23 06:11:28;;;;;;;5.47;4.22;;;14.30;99.90;;;;;;5066627;28;20393;-66
2022/07/23 06:13:54;;;;;;;7.70;4.15;;;14.40;99.90;;;;;;5050213;28;20044;-66
2022/07/23 06:16:19;;;;;;;6.68;4.05;;;14.40;99.90;;;;;;5047488;28;20048;-66
2022/07/23 06:18:45;;;;;;;5.97;4.05;;;14.50;99.90;;;;;;5084866;28;20041;-66
2022/07/23 06:21:11;;;;;;;7.30;4.45;;;14.60;99.90;;;;;;5066674;28;20036;-66
2022/07/23 06:23:36;;;;;;;8.65;4.10;;;14.60;99.90;;;;;;5081983;28;20072;-66
2022/07/23 06:26:02;;;;;;;8.70;3.65;;;14.70;99.90;;;;;;5085059;28;20062;-66
2022/07/23 06:28:28;;;;;;;10.00;4.40;;;14.80;99.90;;;;;;5064630;28;20083;-66
2022/07/23 06:30:53;;;;;;;8.07;3.63;;;14.80;99.90;;;;;;5046896;28;20041;-66
2022/07/23 06:33:19;;;;;;;8.32;3.08;;;14.90;99.90;;;;;;5066776;28;20110;-66
2022/07/23 06:35:45;;;;;;;4.80;2.75;;;14.90;99.90;;;;;;5066236;28;20051;-66
2022/07/23 06:38:10;;;;;;;6.35;3.30;;;15.00;99.90;;;;;;5071132;28;20064;-66
2022/07/23 06:40:36;;;;;;;10.38;3.30;;;15.10;99.90;;;;;;5065445;28;20045;-65
2022/07/23 06:43:02;;;;;;;6.80;3.10;;;15.20;99.90;;;;;;5064112;28;20096;-65
2022/07/23 06:45:27;;;;;;;4.90;2.95;;;15.20;99.90;;;;;;5046283;28;20045;-65
2022/07/23 06:47:53;;;;;;;5.93;2.90;;;15.20;99.90;;;;;;5062852;28;20045;-65
2022/07/23 06:50:19;;;;;;;7.25;2.95;;;15.30;99.90;;;;;;5064054;28;20045;-65
2022/07/23 06:52:44;;;;;;;6.68;2.75;;;15.40;99.90;;;;;;5046064;28;20047;-65
2022/07/23 06:55:10;;;;;;;5.90;3.00;;;15.40;99.90;;;;;;5063753;28;20079;-65
2022/07/23 06:57:36;;;;;;;6.03;2.65;;;15.50;99.90;;;;;;5047460;28;20052;-65
2022/07/23 07:00:03;;;;;;;4.75;2.33;;;15.60;99.90;;;;;;5064506;28;20090;-65
2022/07/23 07:02:29;;;;;;;12.20;2.55;;;15.60;99.90;;;;;;5063991;28;20049;-65
2022/07/23 07:04:56;;;;;;;5.82;2.70;;;15.60;99.90;;;;;;5045970;28;20108;-65
2022/07/23 07:07:21;;;;;;;3.22;2.22;;;15.70;99.90;;;;;;5046033;28;20045;-65
2022/07/23 07:09:47;;;;;;;4.35;1.80;;;15.80;99.90;;;;;;5043919;28;20130;-65
2022/07/23 07:12:13;;;;;;;4.20;1.85;;;15.90;99.90;;;;;;5046613;28;20052;-65
2022/07/23 07:14:38;;;;;;;2.47;1.50;;;15.90;99.90;;;;;;5047087;28;20125;-66
2022/07/23 07:17:04;;;;;;;3.83;1.90;;;16.00;99.90;;;;;;5046599;28;20052;-65
2022/07/23 07:19:30;;;;;;;5.82;1.75;;;16.10;99.90;;;;;;5045737;28;20055;-65
2022/07/23 07:21:56;;;;;;;3.80;1.95;;;16.20;99.90;;;;;;5046113;28;20044;-65
2022/07/23 07:24:21;;;;;;;2.97;1.17;;;16.30;99.90;;;;;;5063779;28;20068;-65
2022/07/23 07:26:47;;;;;;;2.83;1.70;;;16.40;99.90;;;;;;5046202;28;20049;-65
2022/07/23 07:29:13;;;;;;;5.93;1.67;;;16.40;99.90;;;;;;5046298;28;20091;-65
2022/07/23 07:31:38;;;;;;;2.35;1.10;;;16.60;99.90;;;;;;5063534;28;20120;-65
2022/07/23 07:34:04;;;;;;;4.47;1.48;;;16.60;99.90;;;;;;5045847;28;20088;-65
2022/07/23 07:36:30;;;;;;;2.17;1.30;;;16.70;99.90;;;;;;5024151;28;20041;-65
2022/07/23 07:38:55;;;;;;;3.97;1.35;;;16.80;99.90;;;;;;5045237;28;20084;-65
2022/07/23 07:41:25;;;;;;;2.55;1.10;;;16.80;99.90;;;;;;5045346;28;20055;-66
2022/07/23 07:43:52;;;;;;;6.75;1.33;;;16.80;99.90;;;;;;5057977;28;20048;-66
2022/07/23 07:46:17;;;;;;;2.70;1.02;;;16.60;99.90;;;;;;5044842;28;20053;-66
2022/07/23 07:48:43;;;;;;;4.82;1.88;;;16.70;99.90;;;;;;5045696;28;20041;-66
2022/07/23 07:51:09;;;;;;;1.60;0.90;;;16.80;99.90;;;;;;5046156;28;20043;-66
2022/07/23 07:53:34;;;;;;;3.15;1.20;;;17.10;99.90;;;;;;5045804;28;20045;-66
2022/07/23 07:56:00;;;;;;;2.22;1.15;;;17.10;99.90;;;;;;5062750;28;20067;-66
2022/07/23 07:58:26;;;;;;;3.50;1.00;;;17.20;99.90;;;;;;5047505;28;20064;-66
2022/07/23 08:00:51;;;;;;;1.92;1.10;;;17.30;99.90;;;;;;5068688;28;20057;-66
2022/07/23 08:03:17;;;;;;;1.10;0.90;;;17.40;99.90;;;;;;5067914;28;20056;-66
2022/07/23 08:05:43;;;;;;;1.65;1.10;;;17.50;99.90;;;;;;5033018;28;20037;-66
2022/07/23 08:08:14;;;;;;;3.15;1.10;;;17.60;99.90;;;;;;5066871;28;20051;-66
2022/07/23 08:10:40;;;;;;;2.58;0.90;;;17.60;99.90;;;;;;5065329;28;20055;-66
2022/07/23 08:13:06;;;;;;;4.53;1.48;;;17.50;99.90;;;;;;5033353;28;20056;-66
2022/07/23 08:15:32;;;;;;;1.52;1.20;;;17.50;99.90;;;;;;5050408;28;20037;-66
2022/07/23 08:17:58;;;;;;;2.25;1.20;;;17.60;99.90;;;;;;5049571;28;20073;-66
2022/07/23 08:20:25;;;;;;;2.03;1.40;;;17.50;99.90;;;;;;5048982;28;20053;-66
2022/07/23 08:22:59;;;;;;;1.65;1.40;;;17.50;99.90;;;;;;5066743;28;20049;-66
2022/07/23 08:25:40;;;;;;;2.55;1.50;;;17.40;99.90;;;;;;5049986;28;20410;-66
2022/07/23 08:28:09;;;;;;;3.22;1.80;;;17.30;99.90;;;;;;5049029;28;20136;-66
2022/07/23 08:30:37;;;;;;;2.42;1.20;;;17.30;99.90;;;;;;5065353;28;20371;-66
2022/07/23 08:33:06;;;;;;;3.38;1.20;;;17.20;99.90;;;;;;5048867;28;20048;-66
2022/07/23 08:35:36;;;;;;;4.85;1.27;;;17.10;99.90;;;;;;5066129;28;20044;-66
2022/07/23 08:38:04;;;;;;;2.10;1.20;;;17.00;99.90;;;;;;5066561;28;20064;-66
2022/07/23 08:40:32;;;;;;;3.92;1.10;;;16.90;99.90;;;;;;5048496;28;20049;-66
2022/07/23 08:42:59;;;;;;;2.63;1.00;;;17.00;99.90;;;;;;5048410;28;20106;-66
2022/07/23 08:45:26;;;;;;;4.32;1.38;;;17.10;99.90;;;;;;5067404;28;20045;-66
2022/07/23 08:48:00;;;;;;;1.42;1.05;;;17.30;99.90;;;;;;5049739;28;20044;-66
2022/07/23 08:50:27;;;;;;;2.78;1.25;;;17.40;99.90;;;;;;5068065;28;20041;-66
2022/07/23 08:52:53;;;;;;;1.80;1.30;;;17.70;99.90;;;;;;5066432;28;20072;-66
2022/07/23 08:55:20;;;;;;;2.92;1.10;;;17.90;99.90;;;;;;5047791;28;20068;-66
2022/07/23 08:57:51;;;;;;;1.40;1.00;;;18.10;99.90;;;;;;5048356;28;20045;-66
2022/07/23 09:00:19;;;;;;;9.65;1.05;;;18.10;99.90;;;;;;5049661;28;20049;-66
2022/07/23 09:02:45;;;;;;;1.80;0.98;;;18.10;99.90;;;;;;5048939;28;20049;-66
2022/07/23 09:05:12;;;;;;;2.08;0.82;;;17.90;99.90;;;;;;5048353;28;20060;-66
2022/07/23 09:07:58;;;;;;;4.53;1.15;;;17.80;99.90;;;;;;5043660;28;20049;-66
2022/07/23 09:10:24;;;;;;;1.08;0.90;;;17.80;99.90;;;;;;5047001;28;20044;-66
2022/07/23 09:12:50;;;;;;;2.65;0.95;;;17.80;99.90;;;;;;5047436;28;20080;-66
2022/07/23 09:15:15;;;;;;;1.33;0.90;;;17.80;99.90;;;;;;5049518;28;20073;-66
2022/07/23 09:17:42;;;;;;;3.67;1.17;;;17.90;99.90;;;;;;5032983;28;20130;-66
2022/07/23 09:20:17;;;;;;;2.13;0.93;;;18.20;99.90;;;;;;5049164;28;20037;-66
2022/07/23 09:22:47;;;;;;;1.58;0.73;;;18.30;99.90;;;;;;5047420;28;20045;-66
2022/07/23 09:25:18;;;;;;;2.65;1.25;;;18.50;99.90;;;;;;5048925;28;20037;-66
2022/07/23 09:27:54;;;;;;;1.58;0.90;;;18.60;99.90;;;;;;5048036;28;20084;-66
2022/07/23 09:30:22;;;;;;;1.08;0.70;;;18.80;99.90;;;;;;5041272;28;20041;-66
2022/07/23 09:33:08;;;;;;;1.83;0.90;;;18.80;99.90;;;;;;5047480;28;20525;-66
2022/07/23 09:35:51;;;;;;;1.48;0.60;;;18.80;99.90;;;;;;5048473;28;20037;-66
2022/07/23 09:38:18;;;;;;;3.83;0.90;;;18.80;99.90;;;;;;5051023;28;20076;-66
2022/07/23 09:40:46;;;;;;;1.60;1.00;;;18.80;99.90;;;;;;5067072;28;20511;-66
2022/07/23 09:43:25;;;;;;;4.97;1.35;;;18.90;99.90;;;;;;5052072;28;20049;-66
2022/07/23 09:45:51;;;;;;;3.58;0.90;;;19.10;99.90;;;;;;5072046;28;20034;-66
2022/07/23 09:48:17;;;;;;;2.40;1.00;;;19.20;99.90;;;;;;5069765;28;20370;-66
2022/07/23 09:50:44;;;;;;;2.20;0.98;;;19.20;99.90;;;;;;5065152;28;20040;-66
2022/07/23 09:53:30;;;;;;;2.03;0.90;;;19.10;99.90;;;;;;5065960;28;20045;-66
2022/07/23 09:55:59;;;;;;;1.13;0.75;;;19.20;99.90;;;;;;5070022;28;20087;-66
2022/07/23 09:58:26;;;;;;;3.50;0.82;;;19.30;99.90;;;;;;5061686;28;20041;-66
2022/07/23 10:00:53;;;;;;;1.83;0.88;;;19.30;99.90;;;;;;5081029;28;20044;-66
2022/07/23 10:03:20;;;;;;;1.02;0.80;;;19.40;99.90;;;;;;5069279;28;20049;-66
2022/07/23 10:05:47;;;;;;;2.30;0.95;;;19.40;99.90;;;;;;5065775;28;20067;-66
2022/07/23 10:08:16;;;;;;;3.47;1.00;;;19.60;99.90;;;;;;5065003;28;20045;-66
2022/07/23 10:10:42;;;;;;;1.60;0.90;;;19.60;99.90;;;;;;5065348;28;20048;-66
2022/07/23 10:15:54;;;;;;;3.40;0.95;;;19.90;99.90;;;;;;5074563;28;20047;-66
2022/07/23 10:18:20;;;;;;;1.45;0.90;;;19.90;99.90;;;;;;5064137;28;20125;-66
2022/07/23 10:20:47;;;;;;;2.05;0.90;;;19.90;99.90;;;;;;5065201;28;20045;-66
2022/07/23 10:23:39;;;;;;;5.55;1.52;;;19.80;99.90;;;;;;5065131;28;20041;-66
2022/07/23 10:26:15;;;;;;;0.95;0.90;;;19.90;99.90;;;;;;5060910;28;20049;-66
2022/07/23 10:29:20;;;;;;;1.52;1.00;;;19.90;99.90;;;;;;5064094;28;20120;-66
2022/07/23 10:32:08;;;;;;;2.17;1.10;;;20.00;99.90;;;;;;5063941;28;20036;-66
2022/07/23 10:35:03;;;;;;;2.05;1.00;;;20.10;99.90;;;;;;5064430;28;20044;-66
2022/07/23 10:37:37;;;;;;;1.63;0.90;;;20.30;99.90;;;;;;5058648;28;20101;-66
2022/07/23 10:40:17;;;;;;;1.70;1.02;;;20.30;99.90;;;;;;5046843;28;20057;-66
2022/07/23 10:42:44;;;;;;;3.40;1.25;;;20.20;99.90;;;;;;5046668;28;20048;-66
2022/07/23 10:45:39;;;;;;;2.80;1.10;;;20.20;99.90;;;;;;5046592;28;20053;-66
2022/07/23 10:48:22;;;;;;;2.38;1.25;;;20.30;99.90;;;;;;4969349;28;20618;-66
2022/07/23 10:51:15;;;;;;;2.53;0.95;;;20.20;99.90;;;;;;4949554;29;20123;-66
2022/07/23 10:53:53;;;;;;;3.63;1.45;;;20.30;99.90;;;;;;4952230;29;20051;-66
2022/07/23 10:56:49;;;;;;;3.10;1.50;;;20.40;99.90;;;;;;4970289;28;20050;-66
2022/07/23 10:59:15;;;;;;;2.53;1.10;;;20.50;99.90;;;;;;4973802;28;20058;-66
2022/07/23 11:01:41;;;;;;;2.05;1.20;;;20.50;99.90;;;;;;4971183;28;20555;-66
2022/07/23 11:04:07;;;;;;;1.83;1.20;;;20.30;99.90;;;;;;4958030;28;20082;-66
2022/07/23 11:06:48;;;;;;;1.27;1.10;;;20.40;99.90;;;;;;4965659;28;20473;-66
2022/07/23 11:09:37;;;;;;;2.78;1.20;;;20.40;99.90;;;;;;4973456;28;20106;-66
2022/07/23 11:12:24;;;;;;;1.67;1.10;;;20.50;99.90;;;;;;4965881;28;20126;-66
2022/07/23 11:15:04;;;;;;;2.35;1.30;;;20.60;99.90;;;;;;4954622;29;20087;-66
2022/07/23 11:17:50;;;;;;;3.28;1.50;;;20.70;99.90;;;;;;4975729;28;20050;-66
2022/07/23 11:20:19;;;;;;;2.17;1.10;;;20.80;99.90;;;;;;4936477;28;20110;-66
2022/07/23 11:22:44;;;;;;;1.52;1.05;;;20.80;99.90;;;;;;4953891;29;20048;-66
2022/07/23 11:25:33;;;;;;;3.20;1.30;;;20.70;99.90;;;;;;5025489;28;20082;-66
2022/07/23 11:28:16;;;;;;;3.03;1.35;;;20.70;99.90;;;;;;5060839;28;20059;-66
2022/07/23 11:30:45;;;;;;;1.88;1.27;;;20.80;99.90;;;;;;5045635;28;20060;-66
2022/07/23 11:33:10;;;;;;;1.52;1.10;;;20.80;99.90;;;;;;5056546;28;20041;-66
2022/07/23 11:35:38;;;;;;;3.17;1.35;;;20.80;99.90;;;;;;5063496;28;20039;-66
2022/07/23 11:38:13;;;;;;;2.97;1.35;;;21.00;99.90;;;;;;5046021;28;20064;-66
2022/07/23 11:40:39;;;;;;;2.50;1.20;;;21.00;99.90;;;;;;5046806;28;20090;-66
2022/07/23 11:43:10;;;;;;;1.75;1.20;;;21.10;99.90;;;;;;5046844;28;20037;-66
2022/07/23 11:45:38;;;;;;;2.28;1.50;;;20.80;99.90;;;;;;5030189;28;20044;-66
2022/07/23 11:48:07;;;;;;;2.95;1.20;;;20.80;99.90;;;;;;5046737;28;20056;-66
2022/07/23 11:50:33;;;;;;;1.38;1.10;;;21.00;99.90;;;;;;5064397;28;20047;-66
2022/07/23 11:52:58;;;;;;;2.70;1.38;;;21.30;99.90;;;;;;5044731;28;20049;-66
2022/07/23 11:55:24;;;;;;;2.45;1.20;;;21.40;99.90;;;;;;5044590;28;20049;-66
2022/07/23 11:57:52;;;;;;;2.40;1.42;;;21.20;99.90;;;;;;5029146;28;20048;-66
2022/07/23 12:00:29;;;;;;;3.95;1.50;;;21.20;99.90;;;;;;5045251;28;20091;-66
2022/07/23 12:03:01;;;;;;;3.25;1.60;;;21.20;99.90;;;;;;5046639;28;20127;-66
2022/07/23 12:05:32;;;;;;;3.30;1.42;;;21.40;99.90;;;;;;5040417;28;20097;-66
2022/07/23 12:07:59;;;;;;;5.13;1.70;;;21.20;99.90;;;;;;5045494;28;20055;-66
2022/07/23 12:10:38;;;;;;;1.95;1.48;;;21.30;99.90;;;;;;5046554;28;20049;-66
2022/07/23 12:13:12;;;;;;;4.60;2.03;;;21.30;99.90;;;;;;5064196;28;20037;-66
2022/07/23 12:15:43;;;;;;;2.08;1.63;;;21.10;99.90;;;;;;5045020;28;20051;-66
2022/07/23 12:18:12;;;;;;;4.10;2.08;;;21.20;99.90;;;;;;5029029;28;20060;-66
2022/07/23 12:20:41;;;;;;;2.58;1.70;;;21.00;99.90;;;;;;5045236;28;20052;-66
2022/07/23 12:23:09;;;;;;;3.20;1.52;;;21.00;99.90;;;;;;5045171;28;20056;-66
2022/07/23 12:25:54;;;;;;;5.45;2.47;;;21.10;99.90;;;;;;5062952;28;20045;-66
2022/07/23 12:28:37;;;;;;;2.90;2.05;;;21.10;99.90;;;;;;5045464;28;20049;-66
2022/07/23 12:31:03;;;;;;;2.47;1.83;;;21.20;99.90;;;;;;5057125;28;20101;-66
2022/07/23 12:33:35;;;;;;;3.63;1.88;;;21.20;99.90;;;;;;5027731;28;20112;-66
2022/07/23 12:36:04;;;;;;;4.40;2.13;;;21.40;99.90;;;;;;5059426;28;20048;-66
2022/07/23 12:38:38;;;;;;;3.60;1.67;;;21.30;99.90;;;;;;5061007;28;20064;-66
2022/07/23 12:41:04;;;;;;;3.60;2.00;;;21.50;99.90;;;;;;5066008;28;20352;-66
2022/07/23 12:43:33;;;;;;;2.60;1.50;;;21.40;99.90;;;;;;5083256;28;20045;-66
2022/07/23 12:46:08;;;;;;;3.65;1.75;;;21.30;99.90;;;;;;5064991;28;20056;-66
2022/07/23 12:48:51;;;;;;;2.88;1.48;;;21.60;99.90;;;;;;5051551;28;20041;-67
2022/07/23 12:51:19;;;;;;;5.50;1.88;;;21.80;99.90;;;;;;5068511;28;20036;-66
2022/07/23 12:53:48;;;;;;;2.13;1.50;;;21.60;99.90;;;;;;5051486;28;20047;-66